Latest Coastal Weather Observations for Strahan

IDT60701

Issued at 9:22 am EDT Monday 30 March 2015 (issued every 10 minutes, with the page automatically refreshed every 10 minutes)

About coastal observations | Map of coastal stations | Coastal observations for TAS | Marine services | Other Formats
Station Details ID: 097072 Name: STRAHAN AERODROME Lat: -42.16 Lon: 145.29 Height: 21.0 m
Data from the previous 72 hours. | See also: Recent months at Strahan
Date/Time
EDT
Temp

°C
Wind Pressure Rain
since 9am
mm
Weather Cloud Vis
km
Sea
Height
m
Swell
Dir
 
Speed
knots
Gust
knots
hPa Trend Height
m
Period
s
Dir
30/09:10am 13.5 NNE 4 5 1020.6 - 0.0 - Partly cloudy 10 - - - -
30/09:01am 13.5 N 4 6 1020.4 - 0.0 - Partly cloudy 10 - - - -
30/09:00am 13.5 N 4 6 1020.4 - 3.2 Recent precip. Cloudy 10 - - - -
30/08:55am 13.5 NNW 5 6 1020.4 - 3.2 - Partly cloudy 10 - - - -
30/08:30am 13.4 NNW 3 4 1020.2 - 3.0 - Partly cloudy 3 - - - -
30/08:00am 13.3 N 5 7 1020.1 - 2.8 - Partly cloudy 2 - - - -
30/07:30am 13.5 NNE 5 8 1019.8 - 1.8 - Partly cloudy 6 - - - -
30/07:18am 13.7 N 3 4 1019.8 - 1.8 - Partly cloudy 5 - - - -
30/07:02am 13.8 N 5 8 1019.6 - 1.8 - Partly cloudy 7 - - - -
30/07:00am 13.8 N 5 8 1019.6 - 1.8 - Partly cloudy 6 - - - -
30/06:44am 13.8 N 5 6 1019.5 - 1.8 - Partly cloudy 5 - - - -
30/06:30am 13.9 N 5 6 1019.4 - 1.8 - Partly cloudy 7 - - - -
30/06:00am 13.9 N 4 6 1019.4 - 1.8 - Mostly cloudy 8 - - - -
30/05:30am 14.2 NNW 6 7 1019.4 - 1.8 - Cloudy 8 - - - -
30/05:00am 14.4 NNW 7 9 1019.4 - 1.8 - Partly cloudy 8 - - - -
30/04:30am 14.5 NW 10 13 1019.6 - 1.8 - Partly cloudy 10 - - - -
30/04:00am 14.8 NW 13 16 1019.6 - 1.8 - Partly cloudy 10 - - - -
30/03:30am 14.5 NNW 11 14 1019.5 - 1.8 - Partly cloudy 10 - - - -
30/03:00am 14.7 NNW 13 17 1019.7 - 1.8 - Partly cloudy 10 - - - -
30/02:30am 14.7 NNW 12 16 1019.6 - 1.8 - Partly cloudy 8 - - - -
30/02:00am 14.6 NNW 10 13 1019.5 - 1.8 - Cloudy 7 - - - -
30/01:30am 14.5 N 10 12 1019.4 - 1.8 - Cloudy 8 - - - -
30/01:00am 14.6 NNW 10 14 1019.5 - 1.8 - Partly cloudy 8 - - - -
30/12:51am 14.7 NNW 10 13 1019.5 - 1.8 - Partly cloudy 10 - - - -
30/12:30am 14.6 NNW 10 14 1019.5 - 1.8 - Partly cloudy 9 - - - -
30/12:26am 14.6 NNW 9 13 1019.5 - 1.8 - Partly cloudy 8 - - - -
30/12:00am 14.4 NNW 9 11 1019.5 - 1.8 - Cloudy 8 - - - -
 
Date/Time
EDT
Temp

°C
Wind Pressure Rain
since 9am
mm
Weather Cloud Vis
km
Sea
Height
m
Swell
Dir
 
Speed
knots
Gust
knots
hPa Trend Height
m
Period
s
Dir
29/11:30pm 14.2 NNW 10 15 1019.6 - 1.8 - Partly cloudy 10 - - - -
29/11:16pm 14.4 NNW 9 13 1019.7 - 1.8 - Partly cloudy 9 - - - -
29/11:00pm 14.3 NNW 11 14 1019.6 - 1.8 - Partly cloudy 9 - - - -
29/10:41pm 14.3 NNW 7 9 1019.6 - 1.8 - Partly cloudy 8 - - - -
29/10:37pm 14.2 NNW 7 9 1019.6 - 1.8 - Partly cloudy 8 - - - -
29/10:35pm 14.2 NNW 6 9 1019.6 - 1.8 - Partly cloudy 7 - - - -
29/10:30pm 14.0 NNW 5 7 1019.5 - 1.8 - Partly cloudy 6 - - - -
29/10:25pm 13.9 N 5 7 1019.6 - 1.8 - Partly cloudy 5 - - - -
29/10:24pm 13.8 N 5 7 1019.6 - 1.8 - Partly cloudy 5 - - - -
29/10:00pm 13.7 NNW 7 9 1019.5 - 1.8 - Partly cloudy 9 - - - -
29/09:30pm 13.8 NNW 5 6 1019.4 - 1.8 - Partly cloudy 7 - - - -
29/09:00pm 13.6 NNW 6 8 1019.1 - 1.8 - Mostly cloudy 9 - - - -
29/08:30pm 13.5 NNE 3 5 1019.0 - 1.8 - Partly cloudy 8 - - - -
29/08:00pm 13.4 NNE 3 5 1018.7 - 1.8 - Partly cloudy 9 - - - -
29/07:50pm 13.4 NNE 4 6 1018.5 - 1.8 - Partly cloudy 9 - - - -
29/07:38pm 13.5 N 4 5 1018.5 - 1.8 - Partly cloudy 9 - - - -
29/07:30pm 13.6 NNW 4 5 1018.5 - 1.8 - Partly cloudy 9 - - - -
29/07:00pm 13.6 WNW 5 6 1018.4 - 1.8 - Cloudy 10 - - - -
29/06:53pm 13.6 WNW 5 6 1018.4 - 1.8 - Partly cloudy 10 - - - -
29/06:47pm 13.6 WNW 6 8 1018.4 - 1.8 - Partly cloudy 6 - - - -
29/06:33pm 13.8 W 9 11 1018.3 - 1.8 - Partly cloudy 5 - - - -
29/06:30pm 13.9 W 9 11 1018.3 - 1.8 - Partly cloudy 6 - - - -
29/06:00pm 14.3 WNW 8 11 1017.9 - 1.8 - Cloudy 10 - - - -
29/05:30pm 14.4 WNW 6 9 1017.5 - 1.8 - Cloudy 10 - - - -
29/05:00pm 14.3 WNW 9 11 1017.7 - 1.8 - Cloudy 10 - - - -
29/04:30pm 14.7 WNW 11 14 1017.5 - 1.6 - Partly cloudy 10 - - - -
29/04:00pm 14.7 NW 10 14 1017.5 - 1.6 - Cloudy 10 - - - -
29/03:30pm 15.1 WNW 11 14 1017.5 - 1.6 - Partly cloudy 10 - - - -
29/03:00pm 15.0 NW 12 15 1017.4 - 1.6 - Cloudy 10 - - - -
29/02:30pm 14.5 NW 11 16 1017.5 - 1.6 - Partly cloudy 10 - - - -
29/02:15pm 14.7 NW 10 15 1017.4 - 1.6 - Partly cloudy 10 - - - -
29/02:11pm 14.7 NW 10 15 1017.4 - 1.6 - Partly cloudy 10 - - - -
29/02:04pm 14.8 NW 9 11 1017.4 - 1.6 - Partly cloudy 10 - - - -
29/02:00pm 14.8 NW 8 11 1017.4 - 1.6 - Partly cloudy 9 - - - -
29/01:58pm 14.8 NW 8 11 1017.4 - 1.6 - Partly cloudy 8 - - - -
29/01:30pm 13.8 WSW 10 13 1017.5 - 1.6 - Partly cloudy 3 - - - -
29/01:08pm 15.0 NW 16 21 1017.3 - 0.2 - Partly cloudy 5 - - - -
29/01:04pm 15.0 NW 16 22 1017.2 - 0.2 - Partly cloudy 6 - - - -
29/01:00pm 15.0 NNW 15 22 1017.1 - 0.2 - Partly cloudy 6 - - - -
29/12:58pm 15.1 NW 15 22 1017.1 - 0.2 - Partly cloudy 7 - - - -
29/12:56pm 15.0 NW 16 26 1017.1 - 0.2 - Partly cloudy 6 - - - -
29/12:54pm 14.9 NW 17 26 1017.1 - 0.2 - Partly cloudy 5 - - - -
29/12:31pm 15.0 NW 17 23 1017.2 - 0.2 - Partly cloudy 5 - - - -
29/12:30pm 15.0 NW 17 22 1017.2 - 0.2 - Partly cloudy 6 - - - -
29/12:13pm 15.0 NW 16 23 1017.2 - 0.2 - Partly cloudy 9 - - - -
29/12:00pm 14.5 NW 18 25 1017.3 - 0.2 Rain Cloudy 3 - - - -
29/11:55am 14.6 NW 18 26 1017.3 - 0.2 - Partly cloudy 2 - - - -
29/11:46am 14.8 NW 19 25 1017.3 - 0.0 - Partly cloudy 5 - - - -
29/11:30am 15.0 NW 18 24 1017.4 - 0.0 - Cloudy 10 - - - -
29/11:00am 14.9 NW 18 23 1017.5 - 0.0 - Partly cloudy 10 - - - -
29/10:30am 14.9 NW 19 27 1017.4 - 0.0 - Partly cloudy 10 - - - -
29/10:00am 14.9 NNW 16 23 1017.3 - 0.0 - Cloudy 10 - - - -
29/09:30am 14.7 NW 17 23 1017.3 - 0.0 - Partly cloudy 10 - - - -
29/09:00am 14.0 NNW 15 22 1017.1 - 2.8 - Cloudy 10 - - - -
29/08:30am 12.9 N 12 16 1016.9 - 2.8 - Partly cloudy 10 - - - -
29/08:00am 12.5 N 11 16 1016.8 - 2.8 - Partly cloudy 10 - - - -
29/07:30am 12.3 N 11 15 1016.6 - 2.8 - Partly cloudy 10 - - - -
29/07:00am 12.1 N 11 15 1016.8 - 2.8 - Partly cloudy 10 - - - -
29/06:30am 12.1 N 11 15 1016.8 - 2.8 - Partly cloudy 10 - - - -
29/06:12am 12.3 N 12 16 1016.8 - 2.8 - Partly cloudy 10 - - - -
29/06:02am 12.1 N 12 19 1016.8 - 2.8 - Partly cloudy 5 - - - -
29/06:00am 12.1 N 12 19 1016.8 - 2.8 Rain Cloudy 6 - - - -
29/05:30am 12.1 N 11 16 1016.7 - 2.6 - Partly cloudy 10 - - - -
29/05:00am 11.8 N 11 16 1016.9 - 2.6 - Partly cloudy 10 - - - -
29/04:30am 11.6 N 11 17 1016.8 - 2.4 - Partly cloudy 10 - - - -
29/04:00am 11.8 N 10 19 1016.7 - 2.4 - Partly cloudy 10 - - - -
29/03:30am 11.2 N 11 14 1017.7 - 2.4 - Partly cloudy 8 - - - -
29/03:00am 11.1 N 9 15 1017.5 - 2.4 Recent precip. Mostly cloudy 10 - - - -
29/02:51am 11.0 N 10 14 1017.4 - 2.4 - Partly cloudy 10 - - - -
29/02:47am 11.0 N 9 14 1017.5 - 2.4 - Partly cloudy 10 - - - -
29/02:34am 11.0 N 9 14 1017.4 - 2.4 - Partly cloudy 5 - - - -
29/02:33am 11.0 N 8 12 1017.4 - 2.4 - Partly cloudy 6 - - - -
29/02:30am 10.9 N 8 11 1017.5 - 2.2 - Partly cloudy 10 - - - -
29/02:00am 10.9 N 9 13 1017.7 - 1.8 - Partly cloudy 3 - - - -
29/01:38am 11.0 N 8 12 1017.9 - 1.0 - Partly cloudy 2 - - - -
29/01:30am 11.1 N 9 13 1018.2 - 0.6 - Partly cloudy 3 - - - -
29/01:24am 11.0 N 7 13 1018.2 - 0.6 - Partly cloudy 5 - - - -
29/01:23am 11.1 N 7 13 1018.3 - 0.6 - Partly cloudy 6 - - - -
29/01:19am 11.1 N 7 10 1018.2 - 0.4 - Partly cloudy 10 - - - -
29/01:00am 11.6 NNW 10 15 1018.5 - 0.4 - Partly cloudy 3 - - - -
29/12:59am 11.7 NNW 10 15 1018.6 - 0.4 - Partly cloudy 3 - - - -
29/12:50am 11.5 N 8 13 1018.6 - 0.2 - Partly cloudy 5 - - - -
29/12:30am 11.5 NNE 7 8 1018.5 - 0.2 - Partly cloudy 10 - - - -
29/12:00am 11.4 NNE 7 10 1018.6 - 0.2 - Cloudy 10 - - - -
 
Date/Time
EDT
Temp

°C
Wind Pressure Rain
since 9am
mm
Weather Cloud Vis
km
Sea
Height
m
Swell
Dir
 
Speed
knots
Gust
knots
hPa Trend Height
m
Period
s
Dir
28/11:30pm 11.4 NNE 7 10 1019.0 - 0.2 - Cloudy 10 - - - -
28/11:00pm 11.4 NNE 7 11 1019.3 - 0.2 - Cloudy 10 - - - -
28/10:30pm 11.4 NNE 8 9 1019.5 - 0.2 - Cloudy 10 - - - -
28/10:00pm 11.5 NNE 6 9 1019.8 - 0.2 - Partly cloudy 10 - - - -
28/09:30pm 11.6 NNE 6 9 1019.9 - 0.2 - Cloudy 10 - - - -
28/09:00pm 11.8 N 8 12 1019.9 - 0.2 - Cloudy 10 - - - -
28/08:30pm 11.7 N 7 10 1020.0 - 0.2 - Cloudy 10 - - - -
28/08:00pm 11.6 NNE 7 11 1020.0 - 0.2 - Partly cloudy 10 - - - -
28/07:30pm 11.9 N 7 9 1020.1 - 0.2 - Partly cloudy 10 - - - -
28/07:00pm 12.3 N 6 14 1020.2 - 0.2 - Partly cloudy 10 - - - -
28/06:30pm 13.0 NW 11 15 1020.2 - 0.2 - Partly cloudy 10 - - - -
28/06:00pm 12.9 NW 11 15 1020.3 - 0.2 - Cloudy 10 - - - -
28/05:30pm 13.2 WNW 12 17 1020.3 - 0.2 - Partly cloudy 10 - - - -
28/05:00pm 14.5 NW 12 15 1020.5 - 0.2 - - 10 - - - -
28/04:30pm 14.8 NW 13 17 1020.8 - 0.2 - Partly cloudy 10 - - - -
28/04:00pm 15.2 NW 11 14 1020.9 - 0.2 - Partly cloudy 10 - - - -
28/03:30pm 15.5 NW 11 15 1021.1 - 0.2 - Partly cloudy 10 - - - -
28/03:00pm 14.8 NW 11 15 1021.4 - 0.2 - Partly cloudy 10 - - - -
28/02:30pm 16.0 NW 11 14 1021.5 - 0.2 - Partly cloudy 10 - - - -
28/02:00pm 15.5 NW 10 14 1021.8 - 0.2 - Partly cloudy 10 - - - -
28/01:30pm 15.3 NW 11 15 1022.1 - 0.2 - Partly cloudy 10 - - - -
28/01:00pm 15.4 NW 10 13 1022.5 - 0.2 - - 10 - - - -
28/12:30pm 15.2 WNW 8 12 1022.8 - 0.2 - Partly cloudy 10 - - - -
28/12:00pm 13.4 WNW 11 15 1023.1 - 0.2 - Cloudy 10 - - - -
28/11:30am 13.1 NW 5 9 1023.3 - 0.2 - Partly cloudy 10 - - - -
28/11:00am 12.4 NNW 4 5 1023.3 - 0.2 - Cloudy 10 - - - -
28/10:30am 11.9 NNE 4 6 1023.4 - 0.2 - Partly cloudy 10 - - - -
28/10:00am 11.5 ENE 4 6 1023.4 - 0.2 - Partly cloudy 10 - - - -
28/09:30am 11.2 ENE 4 6 1023.3 - 0.0 - Cloudy 10 - - - -
28/09:07am 10.9 NE 4 6 1023.1 - 0.0 - Partly cloudy 7 - - - -
28/09:00am 11.0 NE 5 6 1023.1 - 2.2 - Cloudy 6 - - - -
28/08:57am 11.0 NE 5 6 1023.1 - 2.2 - Partly cloudy 5 - - - -
28/08:30am 10.5 NNE 4 5 1022.9 - 2.2 - Cloudy 10 - - - -
28/08:03am 10.3 NE 4 5 1022.7 - 2.2 - Partly cloudy 10 - - - -
28/08:00am 10.3 NE 4 5 1022.7 - 2.2 - Partly cloudy 10 - - - -
28/07:47am 10.4 ESE 1 5 1022.6 - 2.2 - Partly cloudy 10 - - - -
28/07:30am 10.5 SSW 4 7 1022.5 - 2.2 - Partly cloudy 2 - - - -
28/07:00am 10.4 WSW 5 6 1022.3 - 1.2 - Partly cloudy 2 - - - -
28/06:55am 10.4 W 5 6 1022.3 - 1.0 - Partly cloudy 4 - - - -
28/06:53am 10.3 W 4 6 1022.3 - 1.0 - Partly cloudy 5 - - - -
28/06:30am 10.5 SW 4 5 1022.1 - 1.0 - Partly cloudy 10 - - - -
28/06:00am 10.7 WSW 7 9 1022.1 - 1.0 - Mostly cloudy 10 - - - -
28/05:30am 10.9 W 6 8 1022.0 - 1.0 - Cloudy 10 - - - -
28/05:00am 10.9 W 6 8 1021.9 - 1.0 - Partly cloudy 10 - - - -
28/04:30am 10.7 NNW 5 7 1021.9 - 1.0 - Partly cloudy 10 - - - -
28/04:00am 10.4 NNE 4 6 1021.9 - 1.0 - Cloudy 10 - - - -
28/03:30am 10.4 NNE 5 6 1022.0 - 1.0 - Cloudy 10 - - - -
28/03:00am 10.5 NNE 5 6 1022.4 - 1.0 - Cloudy 10 - - - -
28/02:30am 10.4 NE 5 6 1022.5 - 1.0 - Partly cloudy 10 - - - -
28/02:00am 10.4 NE 3 3 1022.5 - 1.0 - Cloudy 10 - - - -
28/01:30am 10.6 CALM 0 3 1022.5 - 1.0 - Cloudy 10 - - - -
28/01:00am 10.8 NE 5 5 1022.7 - 1.0 - Cloudy 10 - - - -
28/12:30am 11.0 SE 3 5 1022.8 - 1.0 - Partly cloudy 10 - - - -
28/12:00am 11.0 E 3 4 1022.8 - 1.0 - Cloudy 10 - - - -
 
Date/Time
EDT
Temp

°C
Wind Pressure Rain
since 9am
mm
Weather Cloud Vis
km
Sea
Height
m
Swell
Dir
 
Speed
knots
Gust
knots
hPa Trend Height
m
Period
s
Dir
27/11:30pm 11.2 S 2 3 1022.9 - 1.0 - Partly cloudy 10 - - - -
27/11:00pm 11.5 S 4 6 1022.9 - 1.0 - Partly cloudy 10 - - - -
27/10:30pm 11.5 S 4 5 1022.9 - 1.0 - Partly cloudy 10 - - - -
27/10:00pm 11.4 S 4 5 1022.8 - 1.0 - Cloudy 10 - - - -
27/09:30pm 11.2 S 5 7 1022.6 - 1.0 - Partly cloudy 10 - - - -
27/09:00pm 11.1 SSW 6 8 1022.4 - 1.0 - Cloudy 10 - - - -
27/08:30pm 11.3 SSW 8 11 1022.0 - 1.0 - Partly cloudy 10 - - - -
27/08:00pm 11.2 SW 11 15 1021.7 - 1.0 - Cloudy 10 - - - -
27/07:30pm 11.3 SW 14 19 1021.3 - 1.0 - Partly cloudy 10 - - - -
27/07:00pm 11.5 SW 13 21 1021.0 - 1.0 - Partly cloudy 10 - - - -
27/06:30pm 11.8 SW 11 15 1020.6 - 1.0 - Partly cloudy 10 - - - -
27/06:26pm 11.8 SW 10 15 1020.6 - 1.0 - Partly cloudy 9 - - - -
27/06:13pm 11.9 SW 13 17 1020.4 - 1.0 - Partly cloudy 8 - - - -
27/06:00pm 12.1 SW 14 19 1020.2 - 0.6 - Cloudy 9 - - - -
27/05:36pm 12.4 SSW 12 19 1019.9 - 0.6 - Partly cloudy 9 - - - -
27/05:30pm 12.4 SSW 13 19 1019.8 - 0.6 - Partly cloudy 8 - - - -
27/05:16pm 12.5 SSW 13 17 1019.7 - 0.6 - Partly cloudy 10 - - - -
27/05:00pm 13.1 SSW 13 18 1019.6 - 0.6 - Partly cloudy 10 - - - -
27/04:30pm 13.4 SSW 16 22 1019.2 - 0.6 - Partly cloudy 10 - - - -
27/04:00pm 14.4 SSW 19 25 1019.1 - 0.6 - Partly cloudy 10 - - - -
27/03:30pm 14.4 SSW 17 25 1018.8 - 0.6 - Partly cloudy 10 - - - -
27/03:00pm 14.9 SSW 19 26 1018.6 - 0.6 - Cloudy 10 - - - -
27/02:30pm 14.8 SSW 19 26 1018.4 - 0.6 - Partly cloudy 10 - - - -
27/02:00pm 14.0 SSW 18 25 1018.5 - 0.6 - Partly cloudy 9 - - - -
27/01:30pm 14.5 SSW 17 23 1018.6 - 0.4 - Partly cloudy 10 - - - -
27/01:00pm 14.8 SSW 18 25 1018.5 - 0.4 - Partly cloudy 10 - - - -
27/12:30pm 14.4 SSW 14 23 1018.2 - 0.4 - Partly cloudy 10 - - - -
27/12:21pm 13.5 SSW 13 18 1018.2 - 0.4 - Partly cloudy 10 - - - -
27/12:09pm 12.7 SSW 14 21 1018.1 - 0.4 - Partly cloudy 5 - - - -
27/12:00pm 13.3 SSW 14 21 1018.1 - 0.2 - Cloudy 10 - - - -
27/11:30am 12.7 S 13 17 1017.8 - 0.2 - Cloudy 10 - - - -
27/11:00am 12.2 S 13 22 1017.4 - 0.2 - Partly cloudy 10 - - - -
27/10:45am 11.6 ENE 5 8 1016.8 - 0.2 - Partly cloudy 10 - - - -
27/10:30am 10.7 NE 4 5 1016.7 - 0.2 - Partly cloudy 10 - - - -
27/10:00am 10.1 NNE 3 5 1016.4 - 0.2 - Partly cloudy 10 - - - -
27/09:30am 9.6 ENE 3 5 1016.0 - 0.2 - Partly cloudy 10 - - - -

Other Formats:

Comma delimited format used in spreadsheet applications
http://www.bom.gov.au/fwo/IDT60701/IDT60701.94956.axf

JavaScript Object Notation format (JSON) in row-major order
http://www.bom.gov.au/fwo/IDT60701/IDT60701.94956.json